sensor_id;sensor_type;location;lat;lon;timestamp;pressure;altitude;pressure_sealevel;temperature;humidity
64683;BME280;51107;47.652;19.016;2023-05-09T00:00:27;100734.72;;;9.01;58.81
64683;BME280;51107;47.652;19.016;2023-05-09T00:02:55;100728.94;;;9.09;58.32
64683;BME280;51107;47.652;19.016;2023-05-09T00:05:24;100727.25;;;8.96;58.31
64683;BME280;51107;47.652;19.016;2023-05-09T00:07:52;100732.56;;;8.83;59.12
64683;BME280;51107;47.652;19.016;2023-05-09T00:10:21;100730.59;;;8.98;59.34
64683;BME280;51107;47.652;19.016;2023-05-09T00:12:49;100725.03;;;8.92;58.66
64683;BME280;51107;47.652;19.016;2023-05-09T00:15:17;100733.97;;;8.76;59.47
64683;BME280;51107;47.652;19.016;2023-05-09T00:17:46;100724.03;;;8.70;59.49
64683;BME280;51107;47.652;19.016;2023-05-09T00:20:15;100727.00;;;8.88;58.62
64683;BME280;51107;47.652;19.016;2023-05-09T00:22:43;100726.75;;;8.80;59.38
64683;BME280;51107;47.652;19.016;2023-05-09T00:25:12;100717.22;;;8.80;58.56
64683;BME280;51107;47.652;19.016;2023-05-09T00:27:40;100708.69;;;8.90;58.68
64683;BME280;51107;47.652;19.016;2023-05-09T00:30:09;100716.84;;;8.85;59.34
64683;BME280;51107;47.652;19.016;2023-05-09T00:32:38;100724.28;;;8.78;59.12
64683;BME280;51107;47.652;19.016;2023-05-09T00:35:08;100727.00;;;8.77;59.15
64683;BME280;51107;47.652;19.016;2023-05-09T00:37:37;100716.38;;;8.80;59.46
64683;BME280;51107;47.652;19.016;2023-05-09T00:40:06;100716.59;;;8.65;59.87
64683;BME280;51107;47.652;19.016;2023-05-09T00:42:36;100706.88;;;8.56;60.10
64683;BME280;51107;47.652;19.016;2023-05-09T00:45:05;100702.53;;;8.57;60.38
64683;BME280;51107;47.652;19.016;2023-05-09T00:47:34;100706.31;;;8.64;60.20
64683;BME280;51107;47.652;19.016;2023-05-09T00:50:03;100700.41;;;8.62;60.18
64683;BME280;51107;47.652;19.016;2023-05-09T00:52:32;100706.19;;;8.54;60.47
64683;BME280;51107;47.652;19.016;2023-05-09T00:55:01;100709.34;;;8.46;60.00
64683;BME280;51107;47.652;19.016;2023-05-09T00:57:29;100699.94;;;8.32;61.10
64683;BME280;51107;47.652;19.016;2023-05-09T00:59:59;100699.16;;;8.43;60.56
64683;BME280;51107;47.652;19.016;2023-05-09T01:02:27;100705.16;;;8.44;60.84
64683;BME280;51107;47.652;19.016;2023-05-09T01:04:56;100698.66;;;8.38;61.21
64683;BME280;51107;47.652;19.016;2023-05-09T01:13:02;100715.13;;;8.26;61.38
64683;BME280;51107;47.652;19.016;2023-05-09T01:15:38;100707.13;;;8.29;62.10
64683;BME280;51107;47.652;19.016;2023-05-09T01:18:14;100715.03;;;8.27;61.94
64683;BME280;51107;47.652;19.016;2023-05-09T01:21:04;100708.09;;;8.28;61.99
64683;BME280;51107;47.652;19.016;2023-05-09T01:31:42;100713.59;;;8.23;62.71
64683;BME280;51107;47.652;19.016;2023-05-09T01:34:14;100708.97;;;8.15;62.54
64683;BME280;51107;47.652;19.016;2023-05-09T01:36:45;100704.59;;;8.16;62.58
64683;BME280;51107;47.652;19.016;2023-05-09T01:39:16;100699.16;;;8.08;62.80
64683;BME280;51107;47.652;19.016;2023-05-09T01:41:45;100702.78;;;8.05;62.87
64683;BME280;51107;47.652;19.016;2023-05-09T01:44:16;100696.28;;;7.99;63.14
64683;BME280;51107;47.652;19.016;2023-05-09T01:46:46;100697.78;;;7.91;64.24
64683;BME280;51107;47.652;19.016;2023-05-09T01:49:15;100698.59;;;7.91;64.33
64683;BME280;51107;47.652;19.016;2023-05-09T01:51:46;100691.03;;;7.88;65.02
64683;BME280;51107;47.652;19.016;2023-05-09T01:54:16;100696.53;;;7.83;64.76
64683;BME280;51107;47.652;19.016;2023-05-09T01:56:46;100688.88;;;7.82;64.77
64683;BME280;51107;47.652;19.016;2023-05-09T01:59:16;100696.75;;;7.80;65.55
64683;BME280;51107;47.652;19.016;2023-05-09T02:01:45;100703.00;;;7.78;65.40
64683;BME280;51107;47.652;19.016;2023-05-09T02:04:15;100700.28;;;7.79;65.62
64683;BME280;51107;47.652;19.016;2023-05-09T02:06:47;100697.41;;;7.71;64.85
64683;BME280;51107;47.652;19.016;2023-05-09T02:09:19;100692.16;;;7.60;66.30
64683;BME280;51107;47.652;19.016;2023-05-09T02:11:47;100698.50;;;7.69;65.95
64683;BME280;51107;47.652;19.016;2023-05-09T02:14:16;100694.87;;;7.58;66.77
64683;BME280;51107;47.652;19.016;2023-05-09T02:16:44;100696.75;;;7.56;66.60
64683;BME280;51107;47.652;19.016;2023-05-09T02:19:13;100687.84;;;7.60;66.65
64683;BME280;51107;47.652;19.016;2023-05-09T02:21:41;100685.66;;;7.54;66.54
64683;BME280;51107;47.652;19.016;2023-05-09T02:24:10;100678.53;;;7.45;67.26
64683;BME280;51107;47.652;19.016;2023-05-09T02:26:39;100681.97;;;7.45;68.17
64683;BME280;51107;47.652;19.016;2023-05-09T02:29:09;100685.59;;;7.43;67.91
64683;BME280;51107;47.652;19.016;2023-05-09T02:31:39;100687.72;;;7.49;66.95
64683;BME280;51107;47.652;19.016;2023-05-09T02:34:08;100692.53;;;7.42;67.76
64683;BME280;51107;47.652;19.016;2023-05-09T02:36:37;100686.28;;;7.45;67.72
64683;BME280;51107;47.652;19.016;2023-05-09T02:39:06;100683.31;;;7.38;67.92
64683;BME280;51107;47.652;19.016;2023-05-09T02:41:35;100681.44;;;7.40;68.51
64683;BME280;51107;47.652;19.016;2023-05-09T02:44:03;100684.75;;;7.42;67.94
64683;BME280;51107;47.652;19.016;2023-05-09T02:46:32;100680.13;;;7.35;68.42
64683;BME280;51107;47.652;19.016;2023-05-09T02:49:00;100680.53;;;7.28;68.07
64683;BME280;51107;47.652;19.016;2023-05-09T02:51:28;100666.00;;;7.26;68.27
64683;BME280;51107;47.652;19.016;2023-05-09T02:53:57;100672.47;;;7.20;68.86
64683;BME280;51107;47.652;19.016;2023-05-09T02:56:26;100669.56;;;7.12;69.34
64683;BME280;51107;47.652;19.016;2023-05-09T02:58:54;100674.97;;;7.22;69.17
64683;BME280;51107;47.652;19.016;2023-05-09T03:01:22;100671.84;;;7.17;68.98
64683;BME280;51107;47.652;19.016;2023-05-09T03:03:51;100676.63;;;7.10;68.93
64683;BME280;51107;47.652;19.016;2023-05-09T03:06:20;100669.28;;;7.17;68.61
64683;BME280;51107;47.652;19.016;2023-05-09T03:08:48;100671.16;;;7.02;69.29
64683;BME280;51107;47.652;19.016;2023-05-09T03:11:17;100670.81;;;7.06;69.19
64683;BME280;51107;47.652;19.016;2023-05-09T03:13:46;100669.19;;;7.05;69.55
64683;BME280;51107;47.652;19.016;2023-05-09T03:16:16;100672.47;;;7.07;70.20
64683;BME280;51107;47.652;19.016;2023-05-09T03:18:45;100674.47;;;6.78;72.24
64683;BME280;51107;47.652;19.016;2023-05-09T03:21:14;100671.06;;;6.90;71.49
64683;BME280;51107;47.652;19.016;2023-05-09T03:23:42;100661.94;;;6.85;71.37
64683;BME280;51107;47.652;19.016;2023-05-09T03:26:11;100662.16;;;6.69;72.96
64683;BME280;51107;47.652;19.016;2023-05-09T03:28:39;100657.16;;;6.78;72.87
64683;BME280;51107;47.652;19.016;2023-05-09T03:31:08;100666.59;;;6.79;72.85
64683;BME280;51107;47.652;19.016;2023-05-09T03:33:36;100664.72;;;6.82;73.25
64683;BME280;51107;47.652;19.016;2023-05-09T03:36:05;100660.87;;;6.87;73.15
64683;BME280;51107;47.652;19.016;2023-05-09T03:38:33;100660.78;;;7.02;71.94
64683;BME280;51107;47.652;19.016;2023-05-09T03:41:02;100664.19;;;7.02;71.03
64683;BME280;51107;47.652;19.016;2023-05-09T03:43:30;100676.94;;;6.92;73.14
64683;BME280;51107;47.652;19.016;2023-05-09T03:45:59;100667.97;;;6.72;73.98
64683;BME280;51107;47.652;19.016;2023-05-09T03:48:28;100682.44;;;6.62;74.33
64683;BME280;51107;47.652;19.016;2023-05-09T03:50:56;100683.59;;;6.84;74.17
64683;BME280;51107;47.652;19.016;2023-05-09T03:53:26;100679.41;;;6.42;75.57
64683;BME280;51107;47.652;19.016;2023-05-09T03:55:54;100676.53;;;6.73;75.04
64683;BME280;51107;47.652;19.016;2023-05-09T03:58:23;100674.16;;;6.83;74.93
64683;BME280;51107;47.652;19.016;2023-05-09T04:00:51;100678.94;;;6.89;75.24
64683;BME280;51107;47.652;19.016;2023-05-09T04:03:20;100683.69;;;6.95;74.42
64683;BME280;51107;47.652;19.016;2023-05-09T04:05:49;100688.78;;;7.09;72.33
64683;BME280;51107;47.652;19.016;2023-05-09T04:08:18;100680.16;;;6.96;74.30
64683;BME280;51107;47.652;19.016;2023-05-09T04:10:48;100673.22;;;6.96;74.33
64683;BME280;51107;47.652;19.016;2023-05-09T04:13:16;100682.13;;;6.92;74.30
64683;BME280;51107;47.652;19.016;2023-05-09T04:15:45;100685.13;;;6.99;74.85
64683;BME280;51107;47.652;19.016;2023-05-09T04:18:14;100685.97;;;7.12;74.85
64683;BME280;51107;47.652;19.016;2023-05-09T04:20:42;100676.31;;;7.14;74.07
64683;BME280;51107;47.652;19.016;2023-05-09T04:23:11;100679.94;;;7.25;71.70
64683;BME280;51107;47.652;19.016;2023-05-09T04:25:40;100689.22;;;7.40;72.56
64683;BME280;51107;47.652;19.016;2023-05-09T04:28:08;100681.34;;;7.42;72.49
64683;BME280;51107;47.652;19.016;2023-05-09T04:30:37;100686.62;;;7.40;73.81
64683;BME280;51107;47.652;19.016;2023-05-09T04:33:05;100687.72;;;7.49;73.14
64683;BME280;51107;47.652;19.016;2023-05-09T04:35:34;100683.28;;;7.51;72.94
64683;BME280;51107;47.652;19.016;2023-05-09T04:38:02;100687.59;;;7.63;72.70
64683;BME280;51107;47.652;19.016;2023-05-09T04:40:32;100688.97;;;7.80;70.79
64683;BME280;51107;47.652;19.016;2023-05-09T04:43:00;100682.09;;;7.92;71.00
64683;BME280;51107;47.652;19.016;2023-05-09T04:45:29;100685.09;;;7.99;70.63
64683;BME280;51107;47.652;19.016;2023-05-09T04:47:58;100685.81;;;8.12;71.04
64683;BME280;51107;47.652;19.016;2023-05-09T04:50:26;100682.00;;;8.29;69.46
64683;BME280;51107;47.652;19.016;2023-05-09T04:52:54;100684.63;;;8.41;69.57
64683;BME280;51107;47.652;19.016;2023-05-09T04:55:23;100683.16;;;8.61;68.95
64683;BME280;51107;47.652;19.016;2023-05-09T04:57:51;100679.53;;;8.75;67.74
64683;BME280;51107;47.652;19.016;2023-05-09T05:00:20;100678.50;;;8.89;67.71
64683;BME280;51107;47.652;19.016;2023-05-09T05:02:49;100690.19;;;8.94;67.01
64683;BME280;51107;47.652;19.016;2023-05-09T05:05:17;100687.09;;;9.00;66.30
64683;BME280;51107;47.652;19.016;2023-05-09T05:07:53;100691.59;;;9.10;67.52
64683;BME280;51107;47.652;19.016;2023-05-09T05:10:21;100689.84;;;9.22;65.78
64683;BME280;51107;47.652;19.016;2023-05-09T05:12:50;100691.94;;;9.28;64.39
64683;BME280;51107;47.652;19.016;2023-05-09T05:15:19;100697.63;;;9.33;63.13
64683;BME280;51107;47.652;19.016;2023-05-09T05:17:47;100695.13;;;9.31;64.23
64683;BME280;51107;47.652;19.016;2023-05-09T05:20:17;100691.72;;;9.42;62.96
64683;BME280;51107;47.652;19.016;2023-05-09T05:22:46;100688.72;;;9.47;63.30
64683;BME280;51107;47.652;19.016;2023-05-09T05:25:14;100690.50;;;9.58;64.24
64683;BME280;51107;47.652;19.016;2023-05-09T05:27:45;100687.03;;;9.68;64.91
64683;BME280;51107;47.652;19.016;2023-05-09T05:30:13;100690.72;;;9.66;62.91
64683;BME280;51107;47.652;19.016;2023-05-09T05:32:45;100684.66;;;9.77;63.84
64683;BME280;51107;47.652;19.016;2023-05-09T05:35:15;100683.34;;;9.82;63.38
64683;BME280;51107;47.652;19.016;2023-05-09T05:37:44;100688.37;;;9.95;61.55
64683;BME280;51107;47.652;19.016;2023-05-09T05:40:15;100672.28;;;10.01;62.22
64683;BME280;51107;47.652;19.016;2023-05-09T05:42:44;100678.97;;;10.04;61.29
64683;BME280;51107;47.652;19.016;2023-05-09T05:45:13;100686.38;;;10.20;61.52
64683;BME280;51107;47.652;19.016;2023-05-09T05:47:43;100682.97;;;10.19;60.93
64683;BME280;51107;47.652;19.016;2023-05-09T05:50:13;100684.78;;;10.29;61.41
64683;BME280;51107;47.652;19.016;2023-05-09T05:52:41;100680.78;;;10.36;61.86
64683;BME280;51107;47.652;19.016;2023-05-09T05:55:11;100687.13;;;10.43;61.90
64683;BME280;51107;47.652;19.016;2023-05-09T05:57:40;100689.34;;;10.48;60.61
64683;BME280;51107;47.652;19.016;2023-05-09T06:00:10;100683.38;;;10.57;60.92
64683;BME280;51107;47.652;19.016;2023-05-09T06:02:43;100675.88;;;10.64;59.89
64683;BME280;51107;47.652;19.016;2023-05-09T06:05:13;100678.22;;;10.67;60.71
64683;BME280;51107;47.652;19.016;2023-05-09T06:07:42;100678.56;;;10.83;59.33
64683;BME280;51107;47.652;19.016;2023-05-09T06:10:11;100679.28;;;10.85;59.11
64683;BME280;51107;47.652;19.016;2023-05-09T06:12:39;100683.00;;;10.93;59.32
64683;BME280;51107;47.652;19.016;2023-05-09T06:15:08;100687.56;;;11.00;60.09
64683;BME280;51107;47.652;19.016;2023-05-09T06:17:37;100688.28;;;11.12;59.21
64683;BME280;51107;47.652;19.016;2023-05-09T06:20:06;100689.97;;;11.13;59.25
64683;BME280;51107;47.652;19.016;2023-05-09T06:22:34;100693.69;;;11.20;58.35
64683;BME280;51107;47.652;19.016;2023-05-09T06:25:03;100694.63;;;11.19;58.33
64683;BME280;51107;47.652;19.016;2023-05-09T06:27:31;100691.91;;;11.31;59.60
64683;BME280;51107;47.652;19.016;2023-05-09T06:30:00;100692.06;;;11.39;58.01
64683;BME280;51107;47.652;19.016;2023-05-09T06:32:35;100687.84;;;11.38;59.07
64683;BME280;51107;47.652;19.016;2023-05-09T06:35:04;100695.00;;;11.55;59.76
64683;BME280;51107;47.652;19.016;2023-05-09T06:37:33;100690.91;;;11.63;58.62
64683;BME280;51107;47.652;19.016;2023-05-09T06:40:02;100689.41;;;11.70;58.51
64683;BME280;51107;47.652;19.016;2023-05-09T06:42:30;100687.91;;;11.87;58.08
64683;BME280;51107;47.652;19.016;2023-05-09T06:45:00;100693.97;;;11.87;58.98
64683;BME280;51107;47.652;19.016;2023-05-09T06:47:29;100687.69;;;12.00;56.70
64683;BME280;51107;47.652;19.016;2023-05-09T06:49:57;100694.37;;;11.93;56.65
64683;BME280;51107;47.652;19.016;2023-05-09T06:52:25;100687.69;;;12.10;57.59
64683;BME280;51107;47.652;19.016;2023-05-09T06:54:54;100680.38;;;12.13;57.13
64683;BME280;51107;47.652;19.016;2023-05-09T06:57:22;100683.84;;;12.14;56.20
64683;BME280;51107;47.652;19.016;2023-05-09T06:59:51;100675.56;;;12.18;56.15
64683;BME280;51107;47.652;19.016;2023-05-09T07:02:20;100673.50;;;12.42;56.68
64683;BME280;51107;47.652;19.016;2023-05-09T07:04:48;100666.44;;;12.52;56.04
64683;BME280;51107;47.652;19.016;2023-05-09T07:07:16;100664.78;;;12.61;54.68
64683;BME280;51107;47.652;19.016;2023-05-09T07:09:45;100661.16;;;13.09;57.44
64683;BME280;51107;47.652;19.016;2023-05-09T07:12:13;100668.59;;;13.04;54.51
64683;BME280;51107;47.652;19.016;2023-05-09T07:14:41;100659.38;;;13.37;55.05
64683;BME280;51107;47.652;19.016;2023-05-09T07:17:09;100660.31;;;13.46;53.06
64683;BME280;51107;47.652;19.016;2023-05-09T07:19:50;100658.81;;;13.62;53.05
64683;BME280;51107;47.652;19.016;2023-05-09T07:22:19;100655.38;;;13.79;52.66
64683;BME280;51107;47.652;19.016;2023-05-09T07:24:47;100652.81;;;14.05;52.97
64683;BME280;51107;47.652;19.016;2023-05-09T07:27:15;100647.13;;;14.36;50.26
64683;BME280;51107;47.652;19.016;2023-05-09T07:29:44;100646.47;;;14.60;51.71
64683;BME280;51107;47.652;19.016;2023-05-09T07:32:12;100647.69;;;15.01;49.59
64683;BME280;51107;47.652;19.016;2023-05-09T07:34:41;100650.75;;;15.39;50.12
64683;BME280;51107;47.652;19.016;2023-05-09T07:37:09;100651.31;;;15.75;49.56
64683;BME280;51107;47.652;19.016;2023-05-09T07:39:39;100636.53;;;16.24;48.24
64683;BME280;51107;47.652;19.016;2023-05-09T07:42:08;100634.50;;;16.59;47.12
64683;BME280;51107;47.652;19.016;2023-05-09T07:44:36;100626.00;;;16.88;44.70
64683;BME280;51107;47.652;19.016;2023-05-09T07:47:04;100622.03;;;17.01;46.32
64683;BME280;51107;47.652;19.016;2023-05-09T07:49:33;100620.56;;;17.29;44.97
64683;BME280;51107;47.652;19.016;2023-05-09T07:52:01;100626.41;;;17.48;44.28
64683;BME280;51107;47.652;19.016;2023-05-09T07:54:30;100620.13;;;17.49;45.17
64683;BME280;51107;47.652;19.016;2023-05-09T07:56:58;100608.12;;;17.93;43.51
64683;BME280;51107;47.652;19.016;2023-05-09T07:59:27;100616.19;;;18.59;44.89
64683;BME280;51107;47.652;19.016;2023-05-09T08:01:55;100619.38;;;18.40;44.17
64683;BME280;51107;47.652;19.016;2023-05-09T08:04:23;100617.28;;;18.65;42.02
64683;BME280;51107;47.652;19.016;2023-05-09T08:06:52;100611.09;;;19.03;40.75
64683;BME280;51107;47.652;19.016;2023-05-09T08:09:20;100602.78;;;19.06;41.65
64683;BME280;51107;47.652;19.016;2023-05-09T08:11:49;100599.03;;;19.15;41.74
64683;BME280;51107;47.652;19.016;2023-05-09T08:14:17;100594.53;;;18.79;40.65
64683;BME280;51107;47.652;19.016;2023-05-09T08:16:45;100608.19;;;18.38;40.76
64683;BME280;51107;47.652;19.016;2023-05-09T08:19:14;100615.94;;;18.54;41.99
64683;BME280;51107;47.652;19.016;2023-05-09T08:21:42;100601.19;;;18.60;42.06
64683;BME280;51107;47.652;19.016;2023-05-09T08:24:11;100597.34;;;18.92;42.47
64683;BME280;51107;47.652;19.016;2023-05-09T08:26:39;100597.97;;;19.09;40.06
64683;BME280;51107;47.652;19.016;2023-05-09T08:29:07;100604.31;;;19.37;39.98
64683;BME280;51107;47.652;19.016;2023-05-09T08:31:35;100593.63;;;19.45;39.72
64683;BME280;51107;47.652;19.016;2023-05-09T08:34:04;100603.44;;;19.51;39.29
64683;BME280;51107;47.652;19.016;2023-05-09T08:36:32;100590.44;;;19.49;42.02
64683;BME280;51107;47.652;19.016;2023-05-09T08:39:00;100585.56;;;19.96;38.98
64683;BME280;51107;47.652;19.016;2023-05-09T08:41:32;100603.06;;;19.97;40.06
64683;BME280;51107;47.652;19.016;2023-05-09T08:44:03;100590.59;;;19.69;40.30
64683;BME280;51107;47.652;19.016;2023-05-09T08:46:37;100589.31;;;20.09;38.00
64683;BME280;51107;47.652;19.016;2023-05-09T08:49:06;100578.66;;;20.30;39.05
64683;BME280;51107;47.652;19.016;2023-05-09T08:51:35;100580.88;;;20.27;37.74
64683;BME280;51107;47.652;19.016;2023-05-09T08:54:04;100584.16;;;19.79;39.03
64683;BME280;51107;47.652;19.016;2023-05-09T08:56:33;100576.63;;;20.32;38.45
64683;BME280;51107;47.652;19.016;2023-05-09T08:59:03;100574.38;;;20.71;39.33
64683;BME280;51107;47.652;19.016;2023-05-09T09:01:33;100572.03;;;20.90;37.79
64683;BME280;51107;47.652;19.016;2023-05-09T09:04:07;100564.06;;;20.83;38.91
64683;BME280;51107;47.652;19.016;2023-05-09T09:06:36;100567.44;;;19.93;37.80
64683;BME280;51107;47.652;19.016;2023-05-09T09:09:07;100564.12;;;20.61;38.27
64683;BME280;51107;47.652;19.016;2023-05-09T09:11:39;100560.28;;;21.19;38.90
64683;BME280;51107;47.652;19.016;2023-05-09T09:14:12;100557.00;;;21.10;38.03
64683;BME280;51107;47.652;19.016;2023-05-09T09:16:46;100548.78;;;20.01;40.28
64683;BME280;51107;47.652;19.016;2023-05-09T09:19:17;100557.19;;;21.02;35.98
64683;BME280;51107;47.652;19.016;2023-05-09T09:21:47;100551.12;;;21.48;36.65
64683;BME280;51107;47.652;19.016;2023-05-09T09:24:20;100545.03;;;21.61;35.38
64683;BME280;51107;47.652;19.016;2023-05-09T09:26:50;100534.81;;;21.78;34.27
64683;BME280;51107;47.652;19.016;2023-05-09T09:29:20;100543.19;;;21.75;34.12
64683;BME280;51107;47.652;19.016;2023-05-09T09:31:53;100549.47;;;22.08;36.57
64683;BME280;51107;47.652;19.016;2023-05-09T09:34:22;100549.72;;;21.59;34.46
64683;BME280;51107;47.652;19.016;2023-05-09T09:36:51;100552.66;;;20.89;34.74
64683;BME280;51107;47.652;19.016;2023-05-09T09:39:19;100557.66;;;21.52;35.03
64683;BME280;51107;47.652;19.016;2023-05-09T09:41:49;100551.38;;;21.67;34.52
64683;BME280;51107;47.652;19.016;2023-05-09T09:44:19;100555.03;;;21.73;33.45
64683;BME280;51107;47.652;19.016;2023-05-09T09:46:52;100558.44;;;21.19;34.34
64683;BME280;51107;47.652;19.016;2023-05-09T09:49:23;100552.06;;;20.87;34.89
64683;BME280;51107;47.652;19.016;2023-05-09T09:51:53;100549.09;;;21.70;33.27
64683;BME280;51107;47.652;19.016;2023-05-09T09:54:26;100544.84;;;21.56;35.36
64683;BME280;51107;47.652;19.016;2023-05-09T09:56:55;100547.03;;;21.32;35.03
64683;BME280;51107;47.652;19.016;2023-05-09T09:59:25;100544.34;;;21.12;33.36
64683;BME280;51107;47.652;19.016;2023-05-09T10:02:01;100546.44;;;21.70;33.16
64683;BME280;51107;47.652;19.016;2023-05-09T10:04:37;100537.25;;;21.46;33.36
64683;BME280;51107;47.652;19.016;2023-05-09T10:07:09;100536.47;;;21.52;33.13
64683;BME280;51107;47.652;19.016;2023-05-09T10:09:42;100535.03;;;21.36;33.42
64683;BME280;51107;47.652;19.016;2023-05-09T10:12:11;100533.19;;;21.64;34.13
64683;BME280;51107;47.652;19.016;2023-05-09T10:14:42;100524.22;;;21.92;35.42
64683;BME280;51107;47.652;19.016;2023-05-09T10:17:13;100522.44;;;20.70;34.81
64683;BME280;51107;47.652;19.016;2023-05-09T10:19:45;100525.81;;;21.19;34.85
64683;BME280;51107;47.652;19.016;2023-05-09T10:22:16;100520.56;;;20.57;33.42
64683;BME280;51107;47.652;19.016;2023-05-09T10:24:50;100520.31;;;19.75;35.88
64683;BME280;51107;47.652;19.016;2023-05-09T10:27:26;100506.94;;;20.67;34.32
64683;BME280;51107;47.652;19.016;2023-05-09T10:35:09;100512.53;;;20.37;35.54
64683;BME280;51107;47.652;19.016;2023-05-09T10:37:38;100522.03;;;20.25;36.03
64683;BME280;51107;47.652;19.016;2023-05-09T10:40:07;100527.47;;;19.81;35.72
64683;BME280;51107;47.652;19.016;2023-05-09T10:42:36;100511.44;;;19.61;35.85
64683;BME280;51107;47.652;19.016;2023-05-09T10:45:05;100515.78;;;19.19;36.65
64683;BME280;51107;47.652;19.016;2023-05-09T10:47:34;100510.72;;;19.46;38.50
64683;BME280;51107;47.652;19.016;2023-05-09T10:50:04;100513.50;;;18.79;36.85
64683;BME280;51107;47.652;19.016;2023-05-09T10:52:32;100506.00;;;18.98;37.80
64683;BME280;51107;47.652;19.016;2023-05-09T10:55:03;100501.53;;;18.62;38.18
64683;BME280;51107;47.652;19.016;2023-05-09T10:57:32;100507.41;;;18.27;39.51
64683;BME280;51107;47.652;19.016;2023-05-09T11:00:06;100511.13;;;18.48;38.96
64683;BME280;51107;47.652;19.016;2023-05-09T11:02:36;100511.50;;;18.30;38.06
64683;BME280;51107;47.652;19.016;2023-05-09T11:05:14;100515.78;;;18.16;38.30
64683;BME280;51107;47.652;19.016;2023-05-09T11:07:43;100514.50;;;17.97;37.22
64683;BME280;51107;47.652;19.016;2023-05-09T11:10:16;100501.50;;;18.25;38.52
64683;BME280;51107;47.652;19.016;2023-05-09T11:12:58;100502.81;;;18.66;38.32
64683;BME280;51107;47.652;19.016;2023-05-09T11:15:27;100503.56;;;19.18;38.77
64683;BME280;51107;47.652;19.016;2023-05-09T11:18:06;100500.91;;;18.96;37.47
64683;BME280;51107;47.652;19.016;2023-05-09T11:20:41;100499.34;;;19.02;38.41
64683;BME280;51107;47.652;19.016;2023-05-09T11:23:10;100494.03;;;18.95;39.10
64683;BME280;51107;47.652;19.016;2023-05-09T11:25:39;100492.34;;;18.21;38.76
64683;BME280;51107;47.652;19.016;2023-05-09T11:28:08;100489.59;;;18.44;39.53
64683;BME280;51107;47.652;19.016;2023-05-09T11:30:41;100482.69;;;18.28;38.11
64683;BME280;51107;47.652;19.016;2023-05-09T11:33:24;100470.97;;;18.01;39.46
64683;BME280;51107;47.652;19.016;2023-05-09T11:38:41;100471.13;;;18.66;37.32
64683;BME280;51107;47.652;19.016;2023-05-09T11:41:10;100472.69;;;18.24;36.62
64683;BME280;51107;47.652;19.016;2023-05-09T11:43:38;100460.72;;;18.43;37.99
64683;BME280;51107;47.652;19.016;2023-05-09T11:46:07;100459.50;;;18.60;38.39
64683;BME280;51107;47.652;19.016;2023-05-09T11:48:39;100468.00;;;18.77;37.42
64683;BME280;51107;47.652;19.016;2023-05-09T11:51:17;100472.25;;;18.93;38.01
64683;BME280;51107;47.652;19.016;2023-05-09T11:53:49;100458.75;;;19.03;38.15
64683;BME280;51107;47.652;19.016;2023-05-09T11:56:18;100462.03;;;18.68;37.13
64683;BME280;51107;47.652;19.016;2023-05-09T11:58:49;100462.69;;;18.71;37.53
64683;BME280;51107;47.652;19.016;2023-05-09T12:01:18;100462.66;;;18.34;39.02
64683;BME280;51107;47.652;19.016;2023-05-09T12:03:47;100461.59;;;18.13;38.92
64683;BME280;51107;47.652;19.016;2023-05-09T12:06:17;100459.16;;;18.48;39.05
64683;BME280;51107;47.652;19.016;2023-05-09T12:08:46;100449.00;;;18.45;37.76
64683;BME280;51107;47.652;19.016;2023-05-09T12:11:15;100444.06;;;18.57;38.29
64683;BME280;51107;47.652;19.016;2023-05-09T12:13:45;100446.87;;;18.56;38.02
64683;BME280;51107;47.652;19.016;2023-05-09T12:16:15;100443.38;;;18.70;36.85
64683;BME280;51107;47.652;19.016;2023-05-09T12:18:49;100438.97;;;18.56;37.55
64683;BME280;51107;47.652;19.016;2023-05-09T12:21:18;100451.50;;;18.17;38.52
64683;BME280;51107;47.652;19.016;2023-05-09T12:23:48;100431.22;;;18.03;38.88
64683;BME280;51107;47.652;19.016;2023-05-09T12:26:20;100435.69;;;18.02;39.65
64683;BME280;51107;47.652;19.016;2023-05-09T12:28:50;100430.53;;;17.94;38.80
64683;BME280;51107;47.652;19.016;2023-05-09T12:31:19;100431.97;;;18.11;40.11
64683;BME280;51107;47.652;19.016;2023-05-09T12:33:48;100426.34;;;17.99;39.26
64683;BME280;51107;47.652;19.016;2023-05-09T12:36:16;100421.31;;;17.90;39.75
64683;BME280;51107;47.652;19.016;2023-05-09T12:38:54;100424.50;;;18.15;39.33
64683;BME280;51107;47.652;19.016;2023-05-09T12:41:23;100424.06;;;17.96;37.76
64683;BME280;51107;47.652;19.016;2023-05-09T12:43:54;100423.22;;;17.81;39.61
64683;BME280;51107;47.652;19.016;2023-05-09T12:46:23;100415.06;;;17.76;39.45
64683;BME280;51107;47.652;19.016;2023-05-09T12:48:52;100416.13;;;17.66;39.53
64683;BME280;51107;47.652;19.016;2023-05-09T12:51:21;100411.50;;;17.54;39.49
64683;BME280;51107;47.652;19.016;2023-05-09T12:53:50;100412.31;;;17.54;39.31
64683;BME280;51107;47.652;19.016;2023-05-09T12:56:19;100412.00;;;17.19;38.58
64683;BME280;51107;47.652;19.016;2023-05-09T12:58:54;100406.50;;;17.06;39.36
64683;BME280;51107;47.652;19.016;2023-05-09T13:01:27;100399.75;;;17.26;40.33
64683;BME280;51107;47.652;19.016;2023-05-09T13:04:01;100398.84;;;17.49;41.48
64683;BME280;51107;47.652;19.016;2023-05-09T13:06:30;100389.87;;;17.73;40.14
64683;BME280;51107;47.652;19.016;2023-05-09T13:09:01;100387.53;;;17.78;37.70
64683;BME280;51107;47.652;19.016;2023-05-09T13:11:32;100384.50;;;17.66;37.92
64683;BME280;51107;47.652;19.016;2023-05-09T13:14:01;100378.63;;;17.49;40.43
64683;BME280;51107;47.652;19.016;2023-05-09T13:16:30;100378.34;;;17.44;39.61
64683;BME280;51107;47.652;19.016;2023-05-09T13:19:00;100380.88;;;17.38;40.45